createdAt,value
2019-04-29T00:04:45.662Z,100.00
2019-04-29T00:07:20.937Z,100.00
2019-04-29T00:09:50.326Z,100.00
2019-04-29T00:12:19.978Z,100.00
2019-04-29T00:15:08.429Z,100.00
2019-04-29T00:17:56.876Z,100.00
2019-04-29T00:20:45.403Z,100.00
2019-04-29T00:26:10.463Z,100.00
2019-04-29T00:28:39.793Z,100.00
2019-04-29T00:31:09.140Z,100.00
2019-04-29T00:33:38.473Z,100.00
2019-04-29T00:36:07.805Z,100.00
2019-04-29T00:38:56.333Z,100.00
2019-04-29T00:41:44.777Z,100.00
2019-04-29T00:46:53.400Z,100.00
2019-04-29T00:52:56.929Z,100.00
2019-04-29T00:55:45.390Z,100.00
2019-04-29T00:58:26.899Z,100.00
2019-04-29T01:00:56.229Z,100.00
2019-04-29T01:03:25.632Z,100.00
2019-04-29T01:05:54.987Z,100.00
2019-04-29T01:08:24.251Z,100.00
2019-04-29T01:10:53.578Z,100.00
2019-04-29T01:13:22.927Z,100.00
2019-04-29T01:15:52.657Z,100.00
2019-04-29T01:18:22.006Z,100.00
2019-04-29T01:20:51.343Z,100.00
2019-04-29T01:23:20.673Z,100.00
2019-04-29T01:26:01.672Z,100.00
2019-04-29T01:34:31.314Z,100.00
2019-04-29T01:37:00.655Z,100.00
2019-04-29T01:42:52.946Z,100.00
2019-04-29T01:45:22.282Z,100.00
2019-04-29T01:47:51.629Z,100.00
2019-04-29T01:50:20.963Z,100.00
2019-04-29T01:52:50.288Z,100.00
2019-04-29T01:55:19.635Z,100.00
2019-04-29T01:57:48.972Z,100.00
2019-04-29T02:00:18.386Z,100.00
2019-04-29T02:02:47.718Z,100.00
2019-04-29T02:05:17.051Z,100.00
2019-04-29T02:07:46.390Z,100.00
2019-04-29T02:12:56.579Z,100.00
2019-04-29T02:15:25.916Z,100.00
2019-04-29T02:17:55.255Z,100.00
2019-04-29T02:20:36.435Z,100.00
2019-04-29T02:28:25.971Z,100.00
2019-04-29T02:40:10.994Z,100.00
2019-04-29T02:42:59.453Z,100.00
2019-04-29T02:48:38.013Z,100.00
2019-04-29T02:51:07.344Z,100.00
2019-04-29T02:53:36.687Z,100.00
2019-04-29T02:56:06.351Z,100.00
2019-04-29T02:58:54.798Z,100.00
2019-04-29T03:01:43.331Z,100.00
2019-04-29T03:07:08.421Z,100.00
2019-04-29T03:09:56.877Z,100.00
2019-04-29T03:13:06.135Z,100.00
2019-04-29T03:24:13.606Z,100.00
2019-04-29T03:26:42.939Z,100.00
2019-04-29T03:32:07.808Z,100.00
2019-04-29T03:34:37.148Z,100.00
2019-04-29T03:37:06.496Z,100.00
2019-04-29T03:39:35.829Z,100.00
2019-04-29T03:42:45.080Z,100.00
2019-04-29T03:45:14.410Z,100.00
2019-04-29T03:47:43.756Z,100.00
2019-04-29T03:50:13.157Z,100.00
2019-04-29T03:52:42.497Z,100.00
2019-04-29T03:55:38.117Z,100.00
2019-04-29T03:57:54.530Z,100.00
2019-04-29T04:00:23.878Z,100.00
2019-04-29T04:03:12.326Z,100.00
2019-04-29T04:06:00.791Z,100.00
2019-04-29T04:11:25.366Z,100.00
2019-04-29T04:13:54.703Z,100.00
2019-04-29T04:17:14.935Z,100.00
2019-04-29T04:22:58.806Z,100.00
2019-04-29T04:25:28.153Z,100.00
2019-04-29T04:27:57.506Z,100.00
2019-04-29T04:30:26.864Z,100.00
2019-04-29T04:32:56.205Z,100.00
2019-04-29T04:35:25.546Z,100.00
2019-04-29T04:37:54.881Z,100.00
2019-04-29T04:40:43.327Z,100.00
2019-04-29T04:43:12.670Z,100.00
2019-04-29T04:45:54.583Z,100.00
2019-04-29T04:48:23.934Z,100.00
2019-04-29T04:50:53.267Z,100.00
2019-04-29T04:53:22.612Z,100.00
2019-04-29T04:56:11.044Z,100.00
2019-04-29T04:58:40.401Z,100.00
2019-04-29T05:01:29.076Z,100.00
2019-04-29T05:03:58.427Z,100.00
2019-04-29T05:06:27.764Z,100.00
2019-04-29T05:09:02.467Z,100.00
2019-04-29T05:11:31.807Z,100.00
2019-04-29T05:14:01.156Z,100.00
2019-04-29T05:16:30.504Z,100.00
2019-04-29T05:18:59.843Z,100.00
2019-04-29T05:21:29.209Z,100.00
2019-04-29T05:23:58.522Z,100.00
2019-04-29T05:26:27.855Z,100.00
2019-04-29T05:28:57.197Z,100.00
2019-04-29T05:31:26.538Z,100.00
2019-04-29T05:33:55.880Z,100.00
2019-04-29T05:36:45.968Z,100.00
2019-04-29T05:39:34.439Z,100.00
2019-04-29T05:42:07.682Z,100.00
2019-04-29T05:44:59.385Z,100.00
2019-04-29T05:50:43.428Z,100.00
2019-04-29T05:53:31.995Z,100.00
2019-04-29T05:56:01.335Z,100.00
2019-04-29T05:58:32.897Z,100.00
2019-04-29T06:04:00.867Z,100.00
2019-04-29T06:06:30.216Z,100.00
2019-04-29T06:08:59.539Z,100.00
2019-04-29T06:11:28.872Z,100.00
2019-04-29T06:13:58.216Z,100.00
2019-04-29T06:16:27.540Z,100.00
2019-04-29T06:19:00.375Z,100.00
2019-04-29T06:21:33.235Z,100.00
2019-04-29T06:24:04.530Z,100.00
2019-04-29T06:26:52.695Z,100.00
2019-04-29T06:29:22.047Z,100.00
2019-04-29T06:31:51.378Z,100.00
2019-04-29T06:34:20.703Z,100.00
2019-04-29T06:36:50.040Z,100.00
2019-04-29T06:39:19.660Z,100.00
2019-04-29T06:41:48.995Z,100.00
2019-04-29T06:44:18.326Z,100.00
2019-04-29T06:46:50.186Z,100.00
2019-04-29T06:49:38.034Z,100.00
2019-04-29T06:52:07.358Z,100.00
2019-04-29T06:54:42.499Z,100.00
2019-04-29T06:57:17.500Z,100.00
2019-04-29T06:59:47.593Z,100.00
2019-04-29T07:02:36.982Z,100.00
2019-04-29T07:08:08.004Z,100.00
2019-04-29T07:11:01.206Z,100.00
2019-04-29T07:13:33.111Z,100.00
2019-04-29T07:16:02.450Z,100.00
2019-04-29T07:18:31.778Z,100.00
2019-04-29T07:21:01.107Z,100.00
2019-04-29T07:23:30.440Z,100.00
2019-04-29T07:25:59.766Z,100.00
2019-04-29T07:28:29.107Z,100.00
2019-04-29T07:31:01.535Z,100.00
2019-04-29T07:33:38.927Z,100.00
2019-04-29T07:36:11.091Z,100.00
2019-04-29T07:38:58.384Z,100.00
2019-04-29T07:41:27.712Z,100.00
2019-04-29T07:43:57.316Z,100.00
2019-04-29T07:46:56.057Z,100.00
2019-04-29T07:49:36.057Z,100.00
2019-04-29T07:52:05.467Z,100.00
2019-04-29T07:54:34.801Z,100.00
2019-04-29T07:57:12.420Z,100.00
2019-04-29T07:59:46.044Z,98.08
2019-04-29T08:02:15.366Z,100.00
2019-04-29T08:04:44.712Z,98.90
2019-04-29T08:07:14.107Z,98.36
2019-04-29T08:09:44.159Z,97.05
2019-04-29T08:13:00.108Z,95.18
2019-04-29T08:15:31.867Z,98.68
2019-04-29T08:18:19.568Z,98.77
2019-04-29T08:20:48.890Z,96.30
2019-04-29T08:23:18.226Z,95.09
2019-04-29T08:25:47.549Z,99.42
2019-04-29T08:28:16.876Z,97.09
2019-04-29T08:30:47.388Z,95.23
2019-04-29T08:33:36.351Z,95.38
2019-04-29T08:36:05.768Z,99.50
2019-04-29T08:38:35.424Z,98.20
2019-04-29T08:41:04.827Z,95.99
2019-04-29T08:43:56.513Z,97.57
2019-04-29T08:49:13.105Z,97.45
2019-04-29T08:52:01.066Z,98.40
2019-04-29T08:54:30.829Z,96.35
2019-04-29T08:57:04.400Z,98.80
2019-04-29T08:59:36.592Z,99.87
2019-04-29T09:02:11.600Z,100.00
2019-04-29T09:04:52.766Z,99.56
2019-04-29T09:07:31.063Z,94.98
2019-04-29T09:10:02.026Z,96.41
2019-04-29T09:12:50.853Z,94.92
2019-04-29T09:15:20.264Z,98.01
2019-04-29T09:17:49.599Z,98.21
2019-04-29T09:20:19.070Z,96.70
2019-04-29T09:23:08.222Z,92.77
2019-04-29T09:26:02.838Z,94.04
2019-04-29T09:28:49.612Z,97.58
2019-04-29T09:31:27.495Z,97.25
2019-04-29T09:34:06.514Z,91.98
2019-04-29T09:36:37.268Z,90.71
2019-04-29T09:39:06.733Z,87.60
2019-04-29T09:41:55.191Z,87.82
2019-04-29T09:47:33.630Z,91.51
2019-04-29T09:53:38.346Z,81.18
2019-04-29T09:56:07.677Z,80.15
2019-04-29T09:58:37.016Z,81.72
2019-04-29T10:01:25.501Z,77.08
2019-04-29T10:09:30.838Z,80.11
2019-04-29T10:12:01.838Z,74.69
2019-04-29T10:14:31.231Z,80.21
2019-04-29T10:22:36.939Z,77.89
2019-04-29T10:25:46.424Z,80.08
2019-04-29T10:28:15.897Z,78.78
2019-04-29T10:31:25.147Z,78.33
2019-04-29T10:36:42.874Z,76.51
2019-04-29T10:42:34.267Z,74.19
2019-04-29T10:51:18.047Z,73.49
2019-04-29T10:53:59.913Z,71.82
2019-04-29T10:56:29.258Z,73.40
2019-04-29T10:59:17.990Z,71.28
2019-04-29T11:02:49.346Z,71.28
2019-04-29T11:09:09.718Z,65.27
2019-04-29T11:14:40.551Z,68.20
2019-04-29T11:17:16.188Z,71.48
2019-04-29T11:19:50.287Z,67.58
2019-04-29T11:25:51.240Z,65.34
2019-04-29T11:28:24.276Z,65.38
2019-04-29T11:30:53.687Z,65.49
2019-04-29T11:33:42.127Z,66.37
2019-04-29T11:36:30.898Z,68.22
2019-04-29T11:39:00.207Z,68.22
2019-04-29T11:42:09.471Z,64.86
2019-04-29T11:44:38.874Z,67.57
2019-04-29T11:47:08.203Z,65.32
2019-04-29T11:52:33.259Z,61.19
2019-04-29T11:55:02.597Z,64.29
2019-04-29T11:57:51.054Z,64.29
2019-04-29T12:00:36.878Z,65.19
2019-04-29T12:03:23.132Z,67.06
2019-04-29T12:06:11.658Z,67.06
2019-04-29T12:08:55.041Z,61.49
2019-04-29T12:14:39.198Z,63.08
2019-04-29T12:17:27.768Z,62.68
2019-04-29T12:20:16.229Z,58.95
2019-04-29T12:22:48.455Z,58.95
2019-04-29T12:25:22.932Z,62.10
2019-04-29T12:28:19.554Z,60.76
2019-04-29T12:33:54.452Z,62.82
2019-04-29T12:36:23.865Z,62.07
2019-04-29T12:42:07.547Z,59.28
2019-04-29T12:44:56.058Z,59.68
2019-04-29T12:47:39.381Z,54.82
2019-04-29T12:50:09.055Z,54.82
2019-04-29T12:52:38.395Z,51.46
2019-04-29T12:58:03.841Z,57.81
2019-04-29T13:03:39.765Z,55.29
2019-04-29T13:12:19.153Z,58.27
2019-04-29T13:18:14.989Z,52.52
2019-04-29T13:24:12.781Z,57.78
2019-04-29T13:26:47.381Z,55.67
2019-04-29T13:29:36.361Z,57.78
2019-04-29T13:32:37.971Z,56.87
2019-04-29T13:38:03.138Z,60.52
2019-04-29T13:40:33.076Z,56.46
2019-04-29T13:43:25.979Z,54.58
2019-04-29T13:46:11.630Z,54.58
2019-04-29T13:49:12.168Z,56.33
2019-04-29T13:54:46.433Z,55.50
2019-04-29T13:57:16.325Z,54.08
2019-04-29T14:00:37.308Z,55.68
2019-04-29T14:06:21.773Z,57.33
2019-04-29T14:08:54.059Z,57.33
2019-04-29T14:11:27.701Z,54.81
2019-04-29T14:14:03.942Z,54.59
2019-04-29T14:16:33.418Z,55.21
2019-04-29T14:19:02.756Z,56.34
2019-04-29T14:21:32.162Z,55.12
2019-04-29T14:24:01.561Z,55.18
2019-04-29T14:26:31.008Z,55.29
2019-04-29T14:29:00.330Z,55.29
2019-04-29T14:31:30.338Z,57.63
2019-04-29T14:34:07.305Z,56.50
2019-04-29T14:36:36.643Z,56.12
2019-04-29T14:39:13.068Z,56.12
2019-04-29T14:41:41.667Z,55.74
2019-04-29T14:44:30.198Z,55.74
2019-04-29T14:47:01.547Z,55.39
2019-04-29T14:49:35.429Z,56.26
2019-04-29T14:52:03.652Z,59.16
2019-04-29T14:54:36.996Z,57.73
2019-04-29T14:57:04.008Z,55.84
2019-04-29T14:59:33.610Z,55.44
2019-04-29T15:02:16.085Z,54.81
2019-04-29T15:04:43.407Z,55.07
2019-04-29T15:07:12.777Z,57.97
2019-04-29T15:09:58.178Z,55.53
2019-04-29T15:12:51.103Z,55.98
2019-04-29T15:15:29.819Z,55.46
2019-04-29T15:18:01.742Z,56.48
2019-04-29T15:20:33.313Z,56.46
2019-04-29T15:23:02.925Z,55.90
2019-04-29T15:25:32.425Z,54.63
2019-04-29T15:28:01.774Z,53.46
2019-04-29T15:30:31.664Z,52.33
2019-04-29T15:33:02.143Z,53.31
2019-04-29T15:35:31.470Z,55.48
2019-04-29T15:38:00.850Z,53.19
2019-04-29T15:40:30.301Z,53.19
2019-04-29T15:42:59.660Z,52.34
2019-04-29T15:45:32.491Z,52.53
2019-04-29T15:48:00.250Z,54.08
2019-04-29T15:50:32.574Z,52.44
2019-04-29T15:53:03.040Z,52.51
2019-04-29T15:55:34.848Z,52.86
2019-04-29T15:58:02.824Z,52.47
2019-04-29T16:00:38.045Z,52.47
2019-04-29T16:03:03.156Z,52.53
2019-04-29T16:05:54.178Z,54.95
2019-04-29T16:08:12.355Z,54.26
2019-04-29T16:10:59.703Z,56.17
2019-04-29T16:13:29.579Z,56.03
2019-04-29T16:15:58.945Z,57.06
2019-04-29T16:18:28.375Z,58.20
2019-04-29T16:20:57.711Z,59.73
2019-04-29T16:23:27.044Z,59.75
2019-04-29T16:25:56.405Z,67.09
2019-04-29T16:28:31.758Z,74.70
2019-04-29T16:30:56.835Z,79.73
2019-04-29T16:33:26.221Z,84.23
2019-04-29T16:35:57.713Z,84.65
2019-04-29T16:38:26.659Z,85.29
2019-04-29T16:41:03.593Z,89.23
2019-04-29T16:43:36.976Z,87.25
2019-04-29T16:46:08.285Z,91.10
2019-04-29T16:48:37.727Z,92.01
2019-04-29T16:51:14.625Z,88.07
2019-04-29T16:53:38.534Z,89.13
2019-04-29T16:56:07.853Z,89.79
2019-04-29T16:58:37.192Z,93.65
2019-04-29T17:01:06.565Z,92.38
2019-04-29T17:03:35.979Z,94.67
2019-04-29T17:06:05.452Z,95.30
2019-04-29T17:09:02.998Z,98.69
2019-04-29T17:11:37.412Z,98.01
2019-04-29T17:14:10.064Z,100.00
2019-04-29T17:16:37.838Z,100.00
2019-04-29T17:19:07.333Z,100.00
2019-04-29T17:21:36.737Z,100.00
2019-04-29T17:24:07.473Z,100.00
2019-04-29T17:26:38.452Z,100.00
2019-04-29T17:32:15.332Z,100.00
2019-04-29T17:34:58.843Z,100.00
2019-04-29T17:35:17.729Z,100.00
2019-04-29T17:37:18.199Z,100.00
2019-04-29T17:39:47.544Z,100.00
2019-04-29T17:42:16.876Z,100.00
2019-04-29T17:44:46.590Z,100.00
2019-04-29T17:47:17.570Z,100.00
2019-04-29T17:50:06.645Z,100.00
2019-04-29T17:52:35.780Z,100.00
2019-04-29T17:55:20.677Z,100.00
2019-04-29T17:58:03.804Z,100.00
2019-04-29T18:00:58.337Z,100.00
2019-04-29T18:03:34.789Z,100.00
2019-04-29T18:06:11.477Z,100.00
2019-04-29T18:08:45.117Z,100.00
2019-04-29T18:11:15.040Z,100.00
2019-04-29T18:13:45.904Z,100.00
2019-04-29T18:16:22.138Z,100.00
2019-04-29T18:19:06.207Z,100.00
2019-04-29T18:21:47.303Z,100.00
2019-04-29T18:24:18.479Z,100.00
2019-04-29T18:27:05.904Z,100.00
2019-04-29T18:29:41.422Z,100.00
2019-04-29T18:32:07.910Z,100.00
2019-04-29T18:34:37.652Z,100.00
2019-04-29T18:37:07.067Z,100.00
2019-04-29T18:39:36.744Z,100.00
2019-04-29T18:42:06.871Z,100.00
2019-04-29T18:44:36.411Z,100.00
2019-04-29T18:47:05.751Z,100.00
2019-04-29T18:49:35.160Z,100.00
2019-04-29T18:52:07.632Z,100.00
2019-04-29T18:54:35.863Z,100.00
2019-04-29T18:57:05.895Z,100.00
2019-04-29T18:59:36.799Z,100.00
2019-04-29T19:02:09.358Z,100.00
2019-04-29T19:04:39.439Z,100.00
2019-04-29T19:07:08.871Z,100.00
2019-04-29T19:09:39.725Z,100.00
2019-04-29T19:12:09.127Z,100.00
2019-04-29T19:14:38.511Z,100.00
2019-04-29T19:17:07.989Z,100.00
2019-04-29T19:19:39.332Z,100.00
2019-04-29T19:22:09.465Z,100.00
2019-04-29T19:24:39.606Z,100.00
2019-04-29T19:27:10.004Z,100.00
2019-04-29T19:29:43.397Z,100.00
2019-04-29T19:32:10.783Z,100.00
2019-04-29T19:34:43.308Z,100.00
2019-04-29T19:37:11.608Z,100.00
2019-04-29T19:39:40.999Z,100.00
2019-04-29T19:42:10.325Z,100.00
2019-04-29T19:44:39.846Z,100.00
2019-04-29T19:47:10.805Z,100.00
2019-04-29T19:49:44.561Z,100.00
2019-04-29T19:52:11.251Z,100.00
2019-04-29T19:54:40.709Z,100.00
2019-04-29T19:57:10.314Z,100.00
2019-04-29T19:59:50.449Z,100.00
2019-04-29T20:02:11.273Z,100.00
2019-04-29T20:04:45.890Z,100.00
2019-04-29T20:07:17.439Z,100.00
2019-04-29T20:09:48.255Z,100.00
2019-04-29T20:12:18.545Z,100.00
2019-04-29T20:14:48.496Z,100.00
2019-04-29T20:17:27.466Z,100.00
2019-04-29T20:20:05.526Z,100.00
2019-04-29T20:22:37.175Z,100.00
2019-04-29T20:25:07.950Z,100.00
2019-04-29T20:27:37.883Z,100.00
2019-04-29T20:30:27.695Z,100.00
2019-04-29T20:33:09.587Z,100.00
2019-04-29T20:35:45.508Z,100.00
2019-04-29T20:38:16.867Z,100.00
2019-04-29T20:40:53.633Z,100.00
2019-04-29T20:43:30.026Z,100.00
2019-04-29T20:46:06.346Z,100.00
2019-04-29T20:48:37.129Z,100.00
2019-04-29T20:51:32.226Z,100.00
2019-04-29T20:54:41.266Z,100.00
2019-04-29T20:57:17.440Z,100.00
2019-04-29T20:59:50.429Z,100.00
2019-04-29T21:05:19.789Z,100.00
2019-04-29T21:08:04.302Z,100.00
2019-04-29T21:10:46.432Z,100.00
2019-04-29T21:13:58.249Z,100.00
2019-04-29T21:19:23.371Z,100.00
2019-04-29T21:21:52.703Z,100.00
2019-04-29T21:24:22.046Z,100.00
2019-04-29T21:26:51.391Z,100.00
2019-04-29T21:29:20.729Z,100.00
2019-04-29T21:31:50.688Z,100.00
2019-04-29T21:37:26.705Z,100.00
2019-04-29T21:40:18.705Z,100.00
2019-04-29T21:45:31.665Z,100.00
2019-04-29T21:48:01.059Z,100.00
2019-04-29T21:50:34.600Z,100.00
2019-04-29T21:53:20.876Z,100.00
2019-04-29T21:55:50.205Z,100.00
2019-04-29T21:58:19.622Z,100.00
2019-04-29T22:03:29.769Z,100.00
2019-04-29T22:06:00.458Z,100.00
2019-04-29T22:08:39.169Z,100.00
2019-04-29T22:11:08.570Z,100.00
2019-04-29T22:13:39.176Z,100.00
2019-04-29T22:18:55.519Z,100.00
2019-04-29T22:21:26.018Z,100.00
2019-04-29T22:24:01.627Z,100.00
2019-04-29T22:26:30.964Z,100.00
2019-04-29T22:29:03.415Z,100.00
2019-04-29T22:31:38.367Z,100.00
2019-04-29T22:34:15.114Z,100.00
2019-04-29T22:39:31.751Z,100.00
2019-04-29T22:42:23.572Z,100.00
2019-04-29T22:47:54.413Z,100.00
2019-04-29T22:50:28.308Z,100.00
2019-04-29T22:53:01.258Z,100.00
2019-04-29T22:55:47.769Z,100.00
2019-04-29T22:58:17.123Z,100.00
2019-04-29T23:00:46.602Z,100.00
2019-04-29T23:03:37.557Z,100.00
2019-04-29T23:06:39.805Z,100.00
2019-04-29T23:09:11.985Z,100.00
2019-04-29T23:11:47.370Z,100.00
2019-04-29T23:14:21.714Z,100.00
2019-04-29T23:16:51.137Z,100.00
2019-04-29T23:19:20.460Z,100.00
2019-04-29T23:22:10.509Z,100.00
2019-04-29T23:27:54.418Z,100.00
2019-04-29T23:33:32.879Z,100.00
2019-04-29T23:36:02.527Z,100.00
2019-04-29T23:38:31.871Z,100.00
2019-04-29T23:41:01.215Z,100.00
2019-04-29T23:43:30.553Z,100.00
2019-04-29T23:46:00.686Z,100.00
2019-04-29T23:48:50.033Z,100.00
2019-04-29T23:51:19.386Z,100.00
2019-04-29T23:53:48.725Z,100.00
2019-04-29T23:59:35.085Z,100.00
